Time;durP1;ratioP1;P1;durP2;ratioP2;P2;SDS_P1;SDS_P2;PMS_P1;PMS_P2;Temp;Humidity;BMP_temperature;BMP_pressure;BME280_temperature;BME280_humidity;BME280_pressure;Samples;Min_cycle;Max_cycle;Signal;HPM_P1;HPM_P2
2022/11/14 00:01:48;;;;;;;3.80;3.35;;;6.80;99.90;;;;;;6388835;27;20296;-68
2022/11/14 00:05:14;;;;;;;4.63;3.72;;;6.80;99.90;;;;;;6389619;27;20261;-67
2022/11/14 00:08:38;;;;;;;4.57;4.07;;;6.90;99.90;;;;;;6389363;27;20300;-67
2022/11/14 00:12:03;;;;;;;3.97;3.47;;;7.00;99.90;;;;;;6366590;27;20292;-67
2022/11/14 00:15:26;;;;;;;5.85;4.10;;;6.90;99.90;;;;;;6364078;28;20265;-67
2022/11/14 00:18:50;;;;;;;8.03;3.60;;;6.90;99.90;;;;;;6363450;28;20360;-67
2022/11/14 00:22:30;;;;;;;7.63;4.67;;;7.00;99.90;;;;;;6363262;28;20296;-67
2022/11/14 00:25:54;;;;;;;10.20;4.97;;;7.00;99.90;;;;;;6363780;28;20264;-67
2022/11/14 00:29:20;;;;;;;5.23;4.00;;;7.00;99.90;;;;;;6362617;28;20297;-67
2022/11/14 00:32:44;;;;;;;7.07;4.50;;;7.10;99.90;;;;;;6363127;28;20293;-67
2022/11/14 00:36:10;;;;;;;9.25;4.00;;;7.20;99.90;;;;;;6362756;28;20264;-68
2022/11/14 00:39:33;;;;;;;8.32;4.43;;;7.20;99.90;;;;;;6363645;28;20265;-67
2022/11/14 00:42:56;;;;;;;8.20;4.18;;;7.20;99.90;;;;;;6362680;28;20524;-68
2022/11/14 00:46:21;;;;;;;4.60;4.20;;;7.20;99.90;;;;;;6362847;28;20265;-67
2022/11/14 00:49:45;;;;;;;6.50;4.27;;;7.30;99.90;;;;;;6363350;28;20444;-67
2022/11/14 00:53:08;;;;;;;6.15;4.75;;;7.30;99.90;;;;;;6362481;28;20297;-67
2022/11/14 00:56:32;;;;;;;4.55;4.13;;;7.30;99.90;;;;;;6362700;28;20292;-67
2022/11/14 00:59:55;;;;;;;5.28;4.18;;;7.30;99.90;;;;;;6382026;27;20298;-67
2022/11/14 01:03:20;;;;;;;5.47;4.78;;;7.40;99.90;;;;;;6388157;27;20304;-67
2022/11/14 01:06:44;;;;;;;5.95;4.63;;;7.40;99.90;;;;;;6387359;27;20300;-67
2022/11/14 01:10:10;;;;;;;4.65;4.20;;;7.40;99.90;;;;;;6388589;27;20260;-67
2022/11/14 01:13:33;;;;;;;6.45;5.07;;;7.40;99.90;;;;;;6388008;27;20461;-67
2022/11/14 01:16:56;;;;;;;8.13;5.22;;;7.50;99.90;;;;;;6387540;27;20285;-67
2022/11/14 01:20:21;;;;;;;4.68;4.28;;;7.50;99.90;;;;;;6387958;27;20309;-66
2022/11/14 01:23:45;;;;;;;5.32;4.80;;;7.50;99.90;;;;;;6387536;27;20296;-67
2022/11/14 01:27:08;;;;;;;6.60;4.43;;;7.50;99.90;;;;;;6387680;27;20288;-67
2022/11/14 01:30:32;;;;;;;5.20;4.70;;;7.50;99.90;;;;;;6387609;27;20261;-67
2022/11/14 01:33:55;;;;;;;6.22;5.03;;;7.60;99.90;;;;;;6387332;27;20312;-67
2022/11/14 01:37:20;;;;;;;5.03;4.63;;;7.50;99.90;;;;;;6386979;27;20301;-67
2022/11/14 01:40:45;;;;;;;5.28;4.80;;;7.70;99.90;;;;;;6387685;27;20449;-68
2022/11/14 01:44:14;;;;;;;5.57;5.07;;;7.70;99.90;;;;;;6386255;27;20289;-67
2022/11/14 01:47:38;;;;;;;8.23;5.50;;;7.70;99.90;;;;;;6387224;27;20488;-67
2022/11/14 01:51:08;;;;;;;10.10;5.25;;;7.80;99.90;;;;;;6387322;27;20268;-67
2022/11/14 01:54:35;;;;;;;5.55;5.00;;;7.80;99.90;;;;;;6386290;27;20438;-68
2022/11/14 01:57:58;;;;;;;7.90;4.85;;;7.80;99.90;;;;;;6386662;27;20292;-68
2022/11/14 02:01:24;;;;;;;6.95;5.13;;;7.80;99.90;;;;;;6386725;27;20264;-68
2022/11/14 02:04:51;;;;;;;7.10;5.82;;;7.80;99.90;;;;;;6386809;27;20467;-68
2022/11/14 02:08:16;;;;;;;9.02;5.13;;;7.80;99.90;;;;;;6386522;27;20292;-68
2022/11/14 02:11:44;;;;;;;8.98;5.43;;;7.80;99.90;;;;;;6367159;27;20298;-68
2022/11/14 02:15:10;;;;;;;7.50;5.95;;;7.80;99.90;;;;;;6361596;28;20268;-68
2022/11/14 02:18:34;;;;;;;6.35;5.75;;;7.80;99.90;;;;;;6360173;28;20293;-68
2022/11/14 02:21:59;;;;;;;11.77;5.45;;;7.90;99.90;;;;;;6360426;28;20297;-68
2022/11/14 02:25:23;;;;;;;8.80;5.22;;;8.00;99.90;;;;;;6361057;28;20273;-68
2022/11/14 02:28:46;;;;;;;7.30;5.65;;;8.00;99.90;;;;;;6360927;28;20317;-68
2022/11/14 02:32:12;;;;;;;9.48;5.97;;;8.00;99.90;;;;;;6360567;28;20476;-67
2022/11/14 02:35:35;;;;;;;8.75;6.35;;;8.10;99.90;;;;;;6361195;28;20558;-68
2022/11/14 02:39:00;;;;;;;8.85;5.78;;;8.10;99.90;;;;;;6360617;28;20470;-67
2022/11/14 02:42:24;;;;;;;9.70;5.88;;;8.10;99.90;;;;;;6360233;28;20305;-67
2022/11/14 02:45:48;;;;;;;8.95;6.00;;;8.10;99.90;;;;;;6361188;28;20269;-67
2022/11/14 02:49:11;;;;;;;12.55;6.22;;;8.20;99.90;;;;;;6360117;28;20269;-67
2022/11/14 02:52:35;;;;;;;7.55;6.20;;;8.20;99.90;;;;;;6360545;28;20304;-67
2022/11/14 02:56:00;;;;;;;8.65;5.63;;;8.30;99.90;;;;;;6361009;28;20270;-67
2022/11/14 02:59:23;;;;;;;11.48;5.88;;;8.30;99.90;;;;;;6372907;28;20300;-67
2022/11/14 03:02:46;;;;;;;8.85;6.20;;;8.20;99.90;;;;;;6385804;27;20292;-67
2022/11/14 03:06:09;;;;;;;9.93;6.03;;;8.20;99.90;;;;;;6386236;27;20433;-68
2022/11/14 03:09:33;;;;;;;9.77;5.88;;;8.30;99.90;;;;;;6386556;28;20268;-68
2022/11/14 03:12:58;;;;;;;10.85;6.40;;;8.20;99.90;;;;;;6386189;28;20292;-67
2022/11/14 03:16:21;;;;;;;7.32;6.25;;;8.30;99.90;;;;;;6386090;28;20269;-67
2022/11/14 03:19:45;;;;;;;11.70;6.25;;;8.30;99.90;;;;;;6386596;28;20469;-67
2022/11/14 03:23:15;;;;;;;8.88;6.32;;;8.30;99.90;;;;;;6385677;28;20296;-68
2022/11/14 03:26:38;;;;;;;7.65;6.22;;;8.30;99.90;;;;;;6385955;28;20288;-68
2022/11/14 03:30:04;;;;;;;9.73;6.70;;;8.40;99.90;;;;;;6387443;27;20269;-68
2022/11/14 03:33:28;;;;;;;10.50;6.68;;;8.50;99.90;;;;;;6390453;27;20296;-68
2022/11/14 03:36:52;;;;;;;11.13;6.55;;;8.50;99.90;;;;;;6390462;27;20292;-68
2022/11/14 03:40:17;;;;;;;7.88;5.93;;;8.60;99.90;;;;;;6390911;27;20560;-67
2022/11/14 03:43:41;;;;;;;8.63;6.13;;;8.60;99.90;;;;;;6389626;27;20288;-67
2022/11/14 03:47:05;;;;;;;10.90;5.82;;;8.70;99.90;;;;;;6389912;27;20293;-67
2022/11/14 03:50:29;;;;;;;9.23;6.22;;;8.70;99.90;;;;;;6390502;27;20269;-67
2022/11/14 03:53:52;;;;;;;8.70;5.38;;;8.70;99.90;;;;;;6389579;27;20292;-67
2022/11/14 03:57:17;;;;;;;6.95;5.57;;;8.70;99.90;;;;;;6389748;27;20288;-68
2022/11/14 04:00:41;;;;;;;8.65;5.32;;;8.70;99.90;;;;;;6384875;27;20303;-68
2022/11/14 04:04:06;;;;;;;7.15;5.07;;;8.70;99.90;;;;;;6372277;27;20292;-68
2022/11/14 04:07:29;;;;;;;5.95;4.97;;;8.70;99.90;;;;;;6373541;27;20262;-68
2022/11/14 04:10:53;;;;;;;5.75;5.28;;;8.80;99.90;;;;;;6371981;27;20265;-67
2022/11/14 04:14:17;;;;;;;5.88;5.07;;;8.80;99.90;;;;;;6389255;27;20296;-68
2022/11/14 04:17:40;;;;;;;8.40;5.13;;;8.80;99.90;;;;;;6389141;27;20293;-68
2022/11/14 04:21:06;;;;;;;9.88;5.53;;;8.90;99.90;;;;;;6367370;27;20435;-68
2022/11/14 04:24:29;;;;;;;7.78;5.53;;;8.80;99.90;;;;;;6363394;28;20343;-68
2022/11/14 04:27:52;;;;;;;7.72;5.25;;;8.90;99.90;;;;;;6363481;28;20468;-68
2022/11/14 04:31:15;;;;;;;6.88;5.55;;;8.90;99.90;;;;;;6363906;28;20265;-68
2022/11/14 04:34:39;;;;;;;9.05;5.30;;;9.00;99.90;;;;;;6363119;28;20300;-68
2022/11/14 04:38:05;;;;;;;8.15;5.28;;;9.00;99.90;;;;;;6384877;27;20296;-68
2022/11/14 04:41:29;;;;;;;6.88;5.43;;;9.00;99.90;;;;;;6388579;27;20564;-67
2022/11/14 04:44:52;;;;;;;9.45;5.43;;;9.00;99.90;;;;;;6388191;27;20292;-67
2022/11/14 04:48:17;;;;;;;6.00;5.15;;;9.00;99.90;;;;;;6388331;27;20280;-67
2022/11/14 04:51:40;;;;;;;8.25;4.90;;;9.00;99.90;;;;;;6388401;27;20264;-67
2022/11/14 04:55:06;;;;;;;6.93;5.07;;;9.00;99.90;;;;;;6387754;27;20565;-67
2022/11/14 04:58:30;;;;;;;6.35;5.30;;;9.10;99.90;;;;;;6387991;27;20585;-68
2022/11/14 05:01:54;;;;;;;5.60;4.97;;;9.10;99.90;;;;;;6388481;27;20265;-67
2022/11/14 05:05:18;;;;;;;7.10;5.07;;;9.10;99.90;;;;;;6387779;27;20293;-67
2022/11/14 05:08:42;;;;;;;5.05;4.60;;;9.10;99.90;;;;;;6387481;27;20285;-67
2022/11/14 05:12:08;;;;;;;7.85;5.50;;;9.10;99.90;;;;;;6367275;27;20266;-67
2022/11/14 05:15:31;;;;;;;6.15;4.70;;;9.10;99.90;;;;;;6361783;28;20273;-67
2022/11/14 05:18:55;;;;;;;5.78;5.07;;;9.10;99.90;;;;;;6362045;28;20296;-67
2022/11/14 05:22:19;;;;;;;6.25;5.22;;;9.10;99.90;;;;;;6362675;28;20261;-67
2022/11/14 05:25:42;;;;;;;6.00;5.40;;;9.10;99.90;;;;;;6361421;28;20298;-67
2022/11/14 05:29:08;;;;;;;7.30;5.22;;;9.10;99.90;;;;;;6361643;28;20288;-67
2022/11/14 05:32:32;;;;;;;6.22;5.57;;;9.10;99.90;;;;;;6361766;28;20266;-67
2022/11/14 05:35:55;;;;;;;6.85;5.30;;;9.20;99.90;;;;;;6362090;28;20269;-67
2022/11/14 05:39:18;;;;;;;8.98;5.60;;;9.20;99.90;;;;;;6353342;28;20293;-68
2022/11/14 05:42:43;;;;;;;7.40;5.65;;;9.20;99.90;;;;;;6361509;28;20296;-68
2022/11/14 05:46:12;;;;;;;12.38;6.43;;;9.10;99.90;;;;;;6361922;28;20284;-68
2022/11/14 05:49:35;;;;;;;12.05;5.75;;;9.20;99.90;;;;;;6360139;28;20292;-67
2022/11/14 05:52:59;;;;;;;6.97;5.53;;;9.10;99.90;;;;;;6360521;28;20570;-67
2022/11/14 05:56:22;;;;;;;10.63;5.50;;;9.20;99.90;;;;;;6361644;28;20566;-68
2022/11/14 05:59:46;;;;;;;13.20;5.35;;;9.20;99.90;;;;;;6375526;27;20300;-67
2022/11/14 06:03:13;;;;;;;10.68;6.20;;;9.20;99.90;;;;;;6386588;27;20280;-67
2022/11/14 06:06:37;;;;;;;9.77;6.00;;;9.20;99.90;;;;;;6386950;27;20315;-68
2022/11/14 06:10:02;;;;;;;6.60;5.78;;;9.20;99.90;;;;;;6386828;27;20308;-68
2022/11/14 06:13:25;;;;;;;5.88;5.13;;;9.30;99.90;;;;;;6386827;27;20288;-67
2022/11/14 06:16:48;;;;;;;7.13;5.10;;;9.30;99.90;;;;;;6387080;27;20268;-67
2022/11/14 06:20:15;;;;;;;7.38;4.93;;;9.30;99.90;;;;;;6386526;27;20301;-67
2022/11/14 06:23:39;;;;;;;5.80;4.65;;;9.30;99.90;;;;;;6386057;27;20284;-67
2022/11/14 06:27:02;;;;;;;4.93;4.32;;;9.20;99.90;;;;;;6386791;27;20544;-67
2022/11/14 06:30:26;;;;;;;4.80;4.28;;;9.20;99.90;;;;;;6385739;27;20412;-67
2022/11/14 06:33:50;;;;;;;5.30;4.28;;;9.20;99.90;;;;;;6386107;28;20599;-67
2022/11/14 06:37:15;;;;;;;4.65;4.25;;;9.30;99.90;;;;;;6386291;28;20264;-67
2022/11/14 06:40:39;;;;;;;4.47;4.10;;;9.30;99.90;;;;;;6384986;28;20268;-67
2022/11/14 06:44:03;;;;;;;4.00;3.70;;;9.30;99.90;;;;;;6386123;28;20294;-67
2022/11/14 06:47:26;;;;;;;4.03;3.75;;;9.30;99.90;;;;;;6385858;28;20293;-67
2022/11/14 06:50:53;;;;;;;3.28;3.15;;;9.30;99.90;;;;;;6386483;28;20288;-68
2022/11/14 06:54:17;;;;;;;3.38;3.17;;;9.30;99.90;;;;;;6385831;28;20292;-68
2022/11/14 06:57:40;;;;;;;3.13;2.92;;;9.30;99.90;;;;;;6385512;28;20308;-68
2022/11/14 07:01:05;;;;;;;3.17;3.05;;;9.30;99.90;;;;;;6386370;28;20351;-68
2022/11/14 07:04:28;;;;;;;3.10;2.90;;;9.30;99.90;;;;;;6385752;27;20292;-68
2022/11/14 07:07:51;;;;;;;4.05;3.42;;;9.20;99.90;;;;;;6390625;27;20284;-68
2022/11/14 07:11:22;;;;;;;3.47;3.20;;;9.30;99.90;;;;;;6385639;27;20265;-66
2022/11/14 07:14:46;;;;;;;5.50;3.17;;;9.30;99.90;;;;;;6391109;27;20299;-67
2022/11/14 07:18:14;;;;;;;2.63;2.50;;;9.30;99.90;;;;;;6390557;27;20300;-68
2022/11/14 07:21:37;;;;;;;2.33;2.25;;;9.30;99.90;;;;;;6391424;27;20540;-68
2022/11/14 07:25:01;;;;;;;2.25;2.15;;;9.20;99.90;;;;;;6390690;27;20331;-68
2022/11/14 07:28:26;;;;;;;2.30;2.10;;;9.20;99.90;;;;;;6390646;27;20442;-67
2022/11/14 07:31:51;;;;;;;2.10;2.00;;;9.20;99.90;;;;;;6391217;27;20423;-68
2022/11/14 07:35:14;;;;;;;2.00;1.90;;;9.20;99.90;;;;;;6390513;27;20296;-67
2022/11/14 07:38:38;;;;;;;2.28;2.17;;;9.30;99.90;;;;;;6390517;27;20284;-68
2022/11/14 07:42:02;;;;;;;2.95;2.05;;;9.40;99.90;;;;;;6390670;27;20261;-68
2022/11/14 07:45:27;;;;;;;2.88;1.95;;;9.40;99.90;;;;;;6389274;27;20436;-66
2022/11/14 07:48:51;;;;;;;1.80;1.80;;;9.30;99.90;;;;;;6389541;27;20362;-67
2022/11/14 07:52:14;;;;;;;2.28;2.08;;;9.40;99.90;;;;;;6390574;27;20265;-68
2022/11/14 07:55:38;;;;;;;1.75;1.75;;;9.50;99.90;;;;;;6389578;27;20295;-68
2022/11/14 07:59:02;;;;;;;2.30;2.20;;;9.50;99.90;;;;;;6389465;27;20300;-68
2022/11/14 08:02:27;;;;;;;1.77;1.77;;;9.50;99.90;;;;;;6381919;27;20265;-67
2022/11/14 08:05:50;;;;;;;1.75;1.70;;;9.60;99.90;;;;;;6390238;27;20285;-67
2022/11/14 08:09:13;;;;;;;1.70;1.70;;;9.60;99.90;;;;;;6389209;27;20301;-67
2022/11/14 08:12:38;;;;;;;1.50;1.50;;;9.60;99.90;;;;;;6389596;27;20261;-67
2022/11/14 08:16:05;;;;;;;2.20;2.10;;;9.60;99.90;;;;;;6388630;27;20268;-68
2022/11/14 08:19:36;;;;;;;1.55;1.55;;;9.60;99.90;;;;;;6388858;27;20292;-68
2022/11/14 08:23:03;;;;;;;1.42;1.35;;;9.50;99.90;;;;;;6388631;27;20292;-67
2022/11/14 08:26:27;;;;;;;1.50;1.40;;;9.60;99.90;;;;;;6388968;27;20291;-67
2022/11/14 08:29:56;;;;;;;1.40;1.35;;;9.50;99.90;;;;;;6388867;27;20287;-67
2022/11/14 08:33:19;;;;;;;1.65;1.27;;;9.60;99.90;;;;;;6388853;27;20469;-67
2022/11/14 08:36:44;;;;;;;1.20;1.20;;;9.50;99.90;;;;;;6388856;27;20268;-68
2022/11/14 08:40:08;;;;;;;1.35;1.35;;;9.50;99.90;;;;;;6388237;27;20288;-68
2022/11/14 08:43:33;;;;;;;1.00;1.00;;;9.50;99.90;;;;;;6388594;27;20288;-68
2022/11/14 08:46:59;;;;;;;1.17;1.17;;;9.60;99.90;;;;;;6388915;27;20288;-67
2022/11/14 08:50:22;;;;;;;1.08;1.08;;;9.50;99.90;;;;;;6387478;27;20265;-67
2022/11/14 08:53:47;;;;;;;1.00;1.00;;;9.50;99.90;;;;;;6388100;27;20288;-67
2022/11/14 08:57:14;;;;;;;1.38;1.00;;;9.60;99.90;;;;;;6388553;27;20447;-67
2022/11/14 09:00:37;;;;;;;1.70;1.00;;;9.70;99.90;;;;;;6387118;27;20480;-66
2022/11/14 09:04:01;;;;;;;0.98;0.98;;;9.70;99.90;;;;;;6388009;27;20300;-67
2022/11/14 09:07:25;;;;;;;0.90;0.90;;;9.70;99.90;;;;;;6387786;27;20308;-67
2022/11/14 09:10:50;;;;;;;1.00;1.00;;;9.60;99.90;;;;;;6382424;27;20514;-67
2022/11/14 09:14:14;;;;;;;1.10;1.10;;;9.70;99.90;;;;;;6388107;27;20300;-67
2022/11/14 09:17:37;;;;;;;1.10;1.00;;;9.80;99.90;;;;;;6388077;27;20296;-67
2022/11/14 09:21:01;;;;;;;1.00;1.00;;;9.80;99.90;;;;;;6388489;27;20264;-67
2022/11/14 09:24:25;;;;;;;0.90;0.90;;;9.70;99.90;;;;;;6387905;27;20300;-67
2022/11/14 09:27:50;;;;;;;0.80;0.80;;;9.80;99.90;;;;;;6387533;27;20593;-67
2022/11/14 09:31:14;;;;;;;1.00;1.00;;;9.80;99.90;;;;;;6387831;27;20475;-67
2022/11/14 09:34:41;;;;;;;1.00;1.00;;;9.80;99.90;;;;;;6387828;27;20288;-67
2022/11/14 09:38:07;;;;;;;2.85;0.90;;;9.80;99.90;;;;;;6387189;27;20297;-67
2022/11/14 09:41:45;;;;;;;1.48;0.90;;;9.80;99.90;;;;;;6387567;27;20264;-67
2022/11/14 09:45:13;;;;;;;2.25;1.00;;;9.80;99.90;;;;;;6387461;27;20296;-67
2022/11/14 09:48:38;;;;;;;1.90;1.40;;;9.80;99.90;;;;;;6387314;27;20616;-68
2022/11/14 09:52:09;;;;;;;1.20;1.20;;;9.90;99.90;;;;;;6387783;27;20537;-67
2022/11/14 09:55:34;;;;;;;1.10;1.10;;;9.90;99.90;;;;;;6385906;27;20264;-67
2022/11/14 09:59:00;;;;;;;6.28;1.40;;;10.00;99.90;;;;;;6386524;27;20447;-67
2022/11/14 10:02:50;;;;;;;1.50;1.40;;;10.00;99.90;;;;;;6386691;27;20268;-67
2022/11/14 10:06:26;;;;;;;1.30;1.10;;;10.10;99.90;;;;;;6387431;27;20268;-67
2022/11/14 10:09:57;;;;;;;1.08;1.08;;;10.00;99.90;;;;;;6386562;27;20293;-67
2022/11/14 10:13:49;;;;;;;1.45;1.10;;;9.90;99.90;;;;;;6386309;27;20288;-67
2022/11/14 10:17:33;;;;;;;1.20;1.10;;;10.00;99.90;;;;;;6386837;27;20265;-67
2022/11/14 10:21:04;;;;;;;1.98;1.92;;;10.00;99.90;;;;;;6385962;27;20563;-68
2022/11/14 10:24:51;;;;;;;1.60;1.60;;;10.00;99.90;;;;;;6386308;27;20284;-67
2022/11/14 10:28:39;;;;;;;1.52;1.52;;;9.80;99.90;;;;;;6386342;27;20296;-68
2022/11/14 10:32:11;;;;;;;1.60;1.60;;;9.70;99.90;;;;;;6386534;27;20432;-67
2022/11/14 10:35:37;;;;;;;1.55;1.42;;;9.80;99.90;;;;;;6385455;28;20267;-68
2022/11/14 10:39:11;;;;;;;1.45;1.45;;;9.90;99.90;;;;;;6386047;27;20297;-68
2022/11/14 10:42:38;;;;;;;1.65;1.65;;;9.90;99.90;;;;;;6391387;27;20560;-67
2022/11/14 10:46:07;;;;;;;1.95;1.50;;;9.80;99.90;;;;;;6392016;27;20261;-68
2022/11/14 10:49:34;;;;;;;1.98;1.88;;;9.80;99.90;;;;;;6391417;27;20432;-68
2022/11/14 10:53:01;;;;;;;3.53;2.22;;;9.70;99.90;;;;;;6391125;27;20289;-68
2022/11/14 10:56:26;;;;;;;2.42;2.33;;;9.80;99.90;;;;;;6391186;27;20268;-67
2022/11/14 10:59:50;;;;;;;2.20;2.20;;;9.90;99.90;;;;;;6391313;27;20296;-68
2022/11/14 11:03:14;;;;;;;3.05;2.30;;;9.80;99.90;;;;;;6390947;27;20462;-68
2022/11/14 11:06:38;;;;;;;2.60;2.50;;;9.90;99.90;;;;;;6391308;27;20265;-67
2022/11/14 11:13:54;;;;;;;3.05;2.60;;;9.70;99.90;;;;;;6385802;27;20292;-67
2022/11/14 11:17:23;;;;;;;2.40;2.30;;;9.80;99.90;;;;;;6391123;27;20264;-67
2022/11/14 11:21:09;;;;;;;2.97;2.53;;;9.70;99.90;;;;;;6390360;27;20448;-67
2022/11/14 11:24:35;;;;;;;3.15;2.95;;;9.70;99.90;;;;;;6390790;27;20280;-67
2022/11/14 11:28:10;;;;;;;3.42;3.15;;;9.80;99.90;;;;;;6390261;27;20296;-68
2022/11/14 11:31:56;;;;;;;3.00;2.88;;;9.90;99.90;;;;;;6390706;27;20264;-67
2022/11/14 11:35:20;;;;;;;4.20;2.60;;;10.00;99.90;;;;;;6390548;27;20474;-67
2022/11/14 11:38:44;;;;;;;3.13;2.80;;;9.90;99.90;;;;;;6390263;27;20296;-67
2022/11/14 11:42:16;;;;;;;3.58;3.30;;;9.90;99.90;;;;;;6390431;27;20265;-67
2022/11/14 11:45:40;;;;;;;3.60;3.28;;;10.00;99.90;;;;;;6390507;27;20273;-67
2022/11/14 11:49:13;;;;;;;4.40;2.90;;;10.00;99.90;;;;;;6390139;27;20295;-67
2022/11/14 11:52:43;;;;;;;4.95;2.70;;;10.00;99.90;;;;;;6390032;27;20273;-67
2022/11/14 11:56:11;;;;;;;2.67;2.63;;;9.90;99.90;;;;;;6390236;27;20264;-67
2022/11/14 11:59:40;;;;;;;3.00;2.80;;;9.90;99.90;;;;;;6389521;27;20478;-67
2022/11/14 12:03:10;;;;;;;3.05;2.85;;;10.00;99.90;;;;;;6389585;27;20288;-67
2022/11/14 12:06:41;;;;;;;2.53;2.42;;;10.00;99.90;;;;;;6390208;27;20265;-67
2022/11/14 12:10:14;;;;;;;2.50;2.40;;;10.10;99.90;;;;;;6389773;27;20568;-67
2022/11/14 12:14:12;;;;;;;3.42;2.70;;;10.10;99.90;;;;;;6389348;27;20296;-67
2022/11/14 12:18:12;;;;;;;2.83;2.70;;;10.10;99.90;;;;;;6389252;27;20268;-67
2022/11/14 12:21:53;;;;;;;3.40;2.63;;;10.10;99.90;;;;;;6389569;27;20476;-67
2022/11/14 12:25:40;;;;;;;3.15;2.92;;;10.10;99.90;;;;;;6388869;27;20436;-67
2022/11/14 12:29:27;;;;;;;2.55;2.45;;;10.10;99.90;;;;;;6388978;27;20301;-66
2022/11/14 12:32:53;;;;;;;2.88;2.88;;;10.10;99.90;;;;;;6388746;27;20284;-67
2022/11/14 12:36:17;;;;;;;3.20;2.92;;;10.00;99.90;;;;;;6389415;27;20285;-67
2022/11/14 12:39:43;;;;;;;2.88;2.65;;;10.00;99.90;;;;;;6388702;27;20288;-67
2022/11/14 12:43:30;;;;;;;2.90;2.72;;;10.00;99.90;;;;;;6388337;27;20284;-67
2022/11/14 12:47:17;;;;;;;3.35;3.10;;;10.10;99.90;;;;;;6389122;27;20265;-67
2022/11/14 12:50:42;;;;;;;2.00;1.90;;;10.10;99.90;;;;;;6388192;27;20264;-68
2022/11/14 12:54:46;;;;;;;2.05;2.03;;;10.00;99.90;;;;;;6388388;27;20292;-67
2022/11/14 12:58:12;;;;;;;2.40;2.30;;;10.10;99.90;;;;;;6388054;27;20300;-67
2022/11/14 13:01:50;;;;;;;2.08;2.08;;;10.00;99.90;;;;;;6363304;28;20269;-68
2022/11/14 13:05:33;;;;;;;2.38;2.20;;;10.00;99.90;;;;;;6362512;28;20292;-67
2022/11/14 13:09:27;;;;;;;2.80;2.60;;;10.00;99.90;;;;;;6362360;28;20301;-67
2022/11/14 13:24:20;;;;;;;4.55;3.25;;;9.90;99.90;;;;;;6336714;28;20377;-68
2022/11/14 13:27:44;;;;;;;3.00;2.80;;;9.90;99.90;;;;;;6336292;28;20285;-68
2022/11/14 13:31:49;;;;;;;3.13;2.90;;;9.80;99.90;;;;;;6330158;28;20266;-68
2022/11/14 13:35:16;;;;;;;3.13;3.03;;;9.90;99.90;;;;;;6336388;28;20302;-68
2022/11/14 13:39:13;;;;;;;4.53;4.18;;;9.90;99.90;;;;;;6336269;28;20297;-68
2022/11/14 13:42:49;;;;;;;4.63;4.15;;;9.90;99.90;;;;;;6336326;28;20542;-66
2022/11/14 13:46:21;;;;;;;6.05;4.28;;;9.90;99.90;;;;;;6336801;28;20553;-67
2022/11/14 13:49:57;;;;;;;4.35;3.85;;;10.00;99.90;;;;;;6336059;28;20309;-67
2022/11/14 13:53:23;;;;;;;4.38;3.70;;;9.90;99.90;;;;;;6335861;28;20289;-67
2022/11/14 13:56:57;;;;;;;4.43;4.05;;;10.00;99.90;;;;;;6336404;28;20269;-67
2022/11/14 14:00:21;;;;;;;3.65;3.45;;;9.90;99.90;;;;;;6352029;28;20486;-68
2022/11/14 14:04:03;;;;;;;3.72;3.35;;;9.90;99.90;;;;;;6361201;28;20301;-68
2022/11/14 14:07:41;;;;;;;3.80;3.45;;;9.90;99.90;;;;;;6360863;28;20266;-67
2022/11/14 14:11:35;;;;;;;4.20;3.45;;;9.90;99.90;;;;;;6373037;27;20289;-67
2022/11/14 14:15:18;;;;;;;3.63;3.08;;;10.00;99.90;;;;;;6386041;27;20288;-67
2022/11/14 14:18:51;;;;;;;3.83;3.55;;;10.00;99.90;;;;;;6386706;27;20297;-67
2022/11/14 14:22:21;;;;;;;3.53;3.25;;;10.00;99.90;;;;;;6386828;27;20269;-67
2022/11/14 14:25:57;;;;;;;6.82;3.40;;;9.90;99.90;;;;;;6385691;27;20264;-68
2022/11/14 14:29:24;;;;;;;4.45;3.45;;;10.00;99.90;;;;;;6386278;27;20296;-67
2022/11/14 14:33:04;;;;;;;3.45;3.08;;;10.00;99.90;;;;;;6386338;27;20287;-66
2022/11/14 14:36:29;;;;;;;4.72;3.25;;;10.00;99.90;;;;;;6387011;28;20265;-68
2022/11/14 14:39:58;;;;;;;7.30;3.47;;;10.00;99.90;;;;;;6386527;28;20296;-67
2022/11/14 14:43:32;;;;;;;3.40;3.15;;;10.00;99.90;;;;;;6386386;28;20284;-67
2022/11/14 14:46:56;;;;;;;3.10;2.90;;;10.00;99.90;;;;;;6387001;28;20580;-67
2022/11/14 14:50:22;;;;;;;3.78;3.50;;;10.00;99.90;;;;;;6385935;28;20612;-67
2022/11/14 14:53:52;;;;;;;2.60;2.50;;;10.00;99.90;;;;;;6386196;28;20320;-68
2022/11/14 14:57:19;;;;;;;3.00;2.80;;;9.90;99.90;;;;;;6387056;28;20332;-67
2022/11/14 15:00:55;;;;;;;3.25;3.00;;;10.00;99.90;;;;;;6386239;28;20296;-68
2022/11/14 15:04:19;;;;;;;4.55;3.47;;;10.00;99.90;;;;;;6385353;28;20566;-66
2022/11/14 15:07:45;;;;;;;4.30;3.20;;;10.10;99.90;;;;;;6385696;28;20288;-68
2022/11/14 15:11:08;;;;;;;3.42;3.17;;;10.00;99.90;;;;;;6373498;28;20359;-67
2022/11/14 15:14:34;;;;;;;5.47;3.00;;;10.00;99.90;;;;;;6359677;28;20578;-67
2022/11/14 15:18:02;;;;;;;2.70;2.60;;;10.00;99.90;;;;;;6360101;28;20494;-67
2022/11/14 15:21:28;;;;;;;2.95;2.85;;;10.00;99.90;;;;;;6360594;28;20285;-67
2022/11/14 15:25:21;;;;;;;3.28;2.80;;;10.10;99.90;;;;;;6359929;28;20298;-67
2022/11/14 15:28:45;;;;;;;2.80;2.67;;;9.90;99.90;;;;;;6252155;28;20309;-67
2022/11/14 15:32:20;;;;;;;3.30;2.70;;;10.00;99.90;;;;;;6365289;28;20266;-67
2022/11/14 15:35:44;;;;;;;2.33;2.33;;;10.00;99.90;;;;;;6363963;28;20272;-67
2022/11/14 15:39:24;;;;;;;2.83;2.45;;;9.90;99.90;;;;;;6364390;28;20301;-67
2022/11/14 15:42:48;;;;;;;2.53;2.42;;;10.00;99.90;;;;;;6364541;28;20296;-67
2022/11/14 15:46:40;;;;;;;3.10;2.10;;;10.00;99.90;;;;;;6364444;28;20269;-68
2022/11/14 15:50:21;;;;;;;2.60;2.50;;;9.90;99.90;;;;;;6364058;28;20293;-67
2022/11/14 15:53:47;;;;;;;3.65;2.00;;;9.80;99.90;;;;;;6364187;28;20288;-68
2022/11/14 15:57:13;;;;;;;7.80;5.18;;;9.90;99.90;;;;;;6364779;28;20269;-67
2022/11/14 16:00:39;;;;;;;4.82;3.80;;;9.90;99.90;;;;;;6374680;27;20476;-67
2022/11/14 16:04:02;;;;;;;2.63;2.40;;;10.00;99.90;;;;;;6389681;27;20289;-67
2022/11/14 16:07:26;;;;;;;1.98;1.88;;;10.00;99.90;;;;;;6389294;27;20261;-67
2022/11/14 16:10:51;;;;;;;2.40;2.30;;;9.90;99.90;;;;;;6389651;27;20281;-67
2022/11/14 16:14:16;;;;;;;2.30;2.20;;;9.90;99.90;;;;;;6389040;27;20297;-67
2022/11/14 16:17:43;;;;;;;4.35;1.70;;;9.90;99.90;;;;;;6389123;27;20370;-68
2022/11/14 16:21:10;;;;;;;1.92;1.83;;;9.90;99.90;;;;;;6389251;27;20272;-68
2022/11/14 16:24:35;;;;;;;2.15;2.05;;;9.80;99.90;;;;;;6388879;27;20596;-68
2022/11/14 16:28:00;;;;;;;2.00;2.00;;;9.80;99.90;;;;;;6389251;27;20593;-68
2022/11/14 16:31:24;;;;;;;2.08;2.08;;;9.80;99.90;;;;;;6381673;27;20285;-68
2022/11/14 16:34:47;;;;;;;2.35;2.30;;;9.80;99.90;;;;;;6388845;27;20292;-68
2022/11/14 16:38:13;;;;;;;2.78;2.10;;;9.80;99.90;;;;;;6387571;27;20296;-67
2022/11/14 16:41:37;;;;;;;2.30;2.30;;;9.80;99.90;;;;;;6388972;27;20462;-67
2022/11/14 16:45:03;;;;;;;4.25;2.47;;;9.90;99.90;;;;;;6388495;27;20620;-67
2022/11/14 16:48:26;;;;;;;2.50;2.47;;;9.80;99.90;;;;;;6388245;27;20284;-67
2022/11/14 16:51:51;;;;;;;2.70;2.60;;;9.80;99.90;;;;;;6389044;27;20284;-67
2022/11/14 16:55:15;;;;;;;2.67;2.45;;;9.80;99.90;;;;;;6388387;27;20593;-67
2022/11/14 16:58:40;;;;;;;2.92;2.70;;;9.80;99.90;;;;;;6388014;27;20289;-67
2022/11/14 17:02:05;;;;;;;3.00;2.90;;;9.90;99.90;;;;;;6388709;27;20272;-67
2022/11/14 17:05:28;;;;;;;3.80;3.47;;;9.60;99.90;;;;;;6387668;27;20441;-68
2022/11/14 17:08:54;;;;;;;3.25;3.05;;;9.60;99.90;;;;;;6388135;27;20309;-67
2022/11/14 17:12:18;;;;;;;3.13;3.05;;;9.60;99.90;;;;;;6365686;27;20565;-66
2022/11/14 17:15:41;;;;;;;3.25;2.97;;;9.70;99.90;;;;;;6361528;28;20273;-68
2022/11/14 17:19:06;;;;;;;3.85;3.42;;;9.80;99.90;;;;;;6362041;28;20293;-68
2022/11/14 17:22:31;;;;;;;4.43;3.85;;;9.80;99.90;;;;;;6361931;28;20269;-67
2022/11/14 17:26:02;;;;;;;3.63;3.22;;;9.90;99.90;;;;;;6362632;28;20261;-68
2022/11/14 17:29:26;;;;;;;3.35;3.17;;;9.90;99.90;;;;;;6361999;28;20297;-68
2022/11/14 17:32:50;;;;;;;3.55;3.25;;;9.80;99.90;;;;;;6361576;28;20305;-68
2022/11/14 17:36:21;;;;;;;3.25;3.00;;;9.80;99.90;;;;;;6353557;28;20261;-68
2022/11/14 17:39:44;;;;;;;3.63;3.08;;;9.80;99.90;;;;;;6361770;28;20293;-67
2022/11/14 17:43:08;;;;;;;3.13;2.90;;;9.90;99.90;;;;;;6361712;28;20296;-68
2022/11/14 17:46:32;;;;;;;3.35;3.25;;;9.90;99.90;;;;;;6362187;28;20266;-67
2022/11/14 17:49:55;;;;;;;6.82;6.10;;;9.90;99.90;;;;;;6360956;28;20293;-67
2022/11/14 17:53:20;;;;;;;5.50;4.97;;;9.90;99.90;;;;;;6352978;28;20284;-67
2022/11/14 17:56:43;;;;;;;4.30;3.63;;;9.90;99.90;;;;;;6361489;28;20269;-67
2022/11/14 18:00:16;;;;;;;3.33;3.13;;;9.80;99.90;;;;;;6377197;27;20296;-67
2022/11/14 18:03:40;;;;;;;3.83;3.47;;;9.80;99.90;;;;;;6386701;27;20292;-67
2022/11/14 18:07:03;;;;;;;3.42;3.13;;;9.70;99.90;;;;;;6387114;27;20273;-67
2022/11/14 18:10:28;;;;;;;3.40;3.20;;;9.60;99.90;;;;;;6386011;27;20560;-68
2022/11/14 18:13:55;;;;;;;3.20;3.10;;;9.70;99.90;;;;;;6386978;27;20288;-68
2022/11/14 18:17:18;;;;;;;3.47;3.15;;;9.70;99.90;;;;;;6386955;27;20264;-68
2022/11/14 18:20:41;;;;;;;3.00;2.90;;;9.60;99.90;;;;;;6368042;27;20268;-68
2022/11/14 18:24:09;;;;;;;3.40;3.15;;;9.60;99.90;;;;;;6386897;27;20460;-67
2022/11/14 18:27:34;;;;;;;3.20;3.05;;;9.70;99.90;;;;;;6386053;27;20264;-67